sensor_id;sensor_type;location;lat;lon;timestamp;temperature;humidity
76040;SHT30;64736;50.462;4.850;2023-07-29T00:02:07;19.33;98.89
76040;SHT30;64736;50.462;4.850;2023-07-29T00:04:32;19.34;98.95
76040;SHT30;64736;50.462;4.850;2023-07-29T00:06:58;19.34;99.01
76040;SHT30;64736;50.462;4.850;2023-07-29T00:09:24;19.28;99.07
76040;SHT30;64736;50.462;4.850;2023-07-29T00:11:50;19.33;99.16
76040;SHT30;64736;50.462;4.850;2023-07-29T00:14:15;19.31;99.17
76040;SHT30;64736;50.462;4.850;2023-07-29T00:16:41;19.26;99.18
76040;SHT30;64736;50.462;4.850;2023-07-29T00:19:08;19.30;99.28
76040;SHT30;64736;50.462;4.850;2023-07-29T00:21:34;19.28;99.33
76040;SHT30;64736;50.462;4.850;2023-07-29T00:23:59;19.33;99.34
76040;SHT30;64736;50.462;4.850;2023-07-29T00:26:27;19.22;99.25
76040;SHT30;64736;50.462;4.850;2023-07-29T00:28:57;19.20;99.25
76040;SHT30;64736;50.462;4.850;2023-07-29T00:31:23;19.10;99.23
76040;SHT30;64736;50.462;4.850;2023-07-29T00:33:48;19.09;99.16
76040;SHT30;64736;50.462;4.850;2023-07-29T00:36:14;19.07;99.14
76040;SHT30;64736;50.462;4.850;2023-07-29T00:38:40;18.89;99.03
76040;SHT30;64736;50.462;4.850;2023-07-29T00:41:06;18.99;99.22
76040;SHT30;64736;50.462;4.850;2023-07-29T00:43:32;18.85;99.27
76040;SHT30;64736;50.462;4.850;2023-07-29T00:45:58;18.86;99.38
76040;SHT30;64736;50.462;4.850;2023-07-29T00:48:26;18.85;99.19
76040;SHT30;64736;50.462;4.850;2023-07-29T00:50:52;18.81;99.04
76040;SHT30;64736;50.462;4.850;2023-07-29T00:53:18;18.69;99.01
76040;SHT30;64736;50.462;4.850;2023-07-29T00:55:44;18.59;98.83
76040;SHT30;64736;50.462;4.850;2023-07-29T00:58:10;18.55;98.79
76040;SHT30;64736;50.462;4.850;2023-07-29T01:00:36;18.48;98.82
76040;SHT30;64736;50.462;4.850;2023-07-29T01:03:02;18.52;98.76
76040;SHT30;64736;50.462;4.850;2023-07-29T01:05:32;18.44;98.46
76040;SHT30;64736;50.462;4.850;2023-07-29T01:08:21;18.41;98.44
76040;SHT30;64736;50.462;4.850;2023-07-29T01:11:01;18.41;98.57
76040;SHT30;64736;50.462;4.850;2023-07-29T01:13:48;18.40;98.77
76040;SHT30;64736;50.462;4.850;2023-07-29T01:16:33;18.36;98.95
76040;SHT30;64736;50.462;4.850;2023-07-29T01:19:05;18.44;99.09
76040;SHT30;64736;50.462;4.850;2023-07-29T01:21:35;18.43;98.92
76040;SHT30;64736;50.462;4.850;2023-07-29T01:24:02;18.38;98.71
76040;SHT30;64736;50.462;4.850;2023-07-29T01:26:28;18.37;98.62
76040;SHT30;64736;50.462;4.850;2023-07-29T01:28:56;18.38;98.70
76040;SHT30;64736;50.462;4.850;2023-07-29T01:31:31;18.33;98.64
76040;SHT30;64736;50.462;4.850;2023-07-29T01:37:05;18.26;98.65
76040;SHT30;64736;50.462;4.850;2023-07-29T01:39:34;18.20;98.62
76040;SHT30;64736;50.462;4.850;2023-07-29T01:42:03;18.17;98.45
76040;SHT30;64736;50.462;4.850;2023-07-29T01:44:29;18.00;97.73
76040;SHT30;64736;50.462;4.850;2023-07-29T01:46:56;17.90;97.40
76040;SHT30;64736;50.462;4.850;2023-07-29T01:49:22;17.93;97.33
76040;SHT30;64736;50.462;4.850;2023-07-29T01:51:47;17.85;96.92
76040;SHT30;64736;50.462;4.850;2023-07-29T01:54:13;17.83;97.02
76040;SHT30;64736;50.462;4.850;2023-07-29T01:56:38;17.76;97.04
76040;SHT30;64736;50.462;4.850;2023-07-29T01:59:04;17.79;96.98
76040;SHT30;64736;50.462;4.850;2023-07-29T02:01:30;17.79;96.89
76040;SHT30;64736;50.462;4.850;2023-07-29T02:03:56;17.79;96.90
76040;SHT30;64736;50.462;4.850;2023-07-29T02:06:22;17.73;97.05
76040;SHT30;64736;50.462;4.850;2023-07-29T02:08:48;17.69;96.98
76040;SHT30;64736;50.462;4.850;2023-07-29T02:11:14;17.61;97.37
76040;SHT30;64736;50.462;4.850;2023-07-29T02:13:40;17.63;97.83
76040;SHT30;64736;50.462;4.850;2023-07-29T02:16:05;17.58;97.79
76040;SHT30;64736;50.462;4.850;2023-07-29T02:18:31;17.55;97.94
76040;SHT30;64736;50.462;4.850;2023-07-29T02:20:57;17.52;98.29
76040;SHT30;64736;50.462;4.850;2023-07-29T02:23:23;17.56;98.03
76040;SHT30;64736;50.462;4.850;2023-07-29T02:25:49;17.58;98.01
76040;SHT30;64736;50.462;4.850;2023-07-29T02:28:15;17.53;97.90
76040;SHT30;64736;50.462;4.850;2023-07-29T02:30:42;17.55;97.96
76040;SHT30;64736;50.462;4.850;2023-07-29T02:33:10;17.51;98.09
76040;SHT30;64736;50.462;4.850;2023-07-29T02:35:36;17.53;98.12
76040;SHT30;64736;50.462;4.850;2023-07-29T02:38:02;17.61;97.60
76040;SHT30;64736;50.462;4.850;2023-07-29T02:40:27;17.53;97.26
76040;SHT30;64736;50.462;4.850;2023-07-29T02:42:54;17.55;97.02
76040;SHT30;64736;50.462;4.850;2023-07-29T02:45:20;17.43;96.78
76040;SHT30;64736;50.462;4.850;2023-07-29T02:47:46;17.49;97.20
76040;SHT30;64736;50.462;4.850;2023-07-29T02:50:12;17.53;97.05
76040;SHT30;64736;50.462;4.850;2023-07-29T02:52:38;17.51;96.84
76040;SHT30;64736;50.462;4.850;2023-07-29T02:55:04;17.43;96.84
76040;SHT30;64736;50.462;4.850;2023-07-29T02:57:30;17.39;96.65
76040;SHT30;64736;50.462;4.850;2023-07-29T02:59:56;17.43;97.04
76040;SHT30;64736;50.462;4.850;2023-07-29T03:02:22;17.41;97.16
76040;SHT30;64736;50.462;4.850;2023-07-29T03:04:48;17.41;97.20
76040;SHT30;64736;50.462;4.850;2023-07-29T03:07:14;17.34;97.21
76040;SHT30;64736;50.462;4.850;2023-07-29T03:09:40;17.32;97.30
76040;SHT30;64736;50.462;4.850;2023-07-29T03:12:07;17.28;96.72
76040;SHT30;64736;50.462;4.850;2023-07-29T03:14:33;17.25;96.85
76040;SHT30;64736;50.462;4.850;2023-07-29T03:17:03;17.18;96.68
76040;SHT30;64736;50.462;4.850;2023-07-29T03:19:29;17.20;97.03
76040;SHT30;64736;50.462;4.850;2023-07-29T03:21:56;17.11;96.53
76040;SHT30;64736;50.462;4.850;2023-07-29T03:24:21;16.99;97.14
76040;SHT30;64736;50.462;4.850;2023-07-29T03:26:47;17.11;97.14
76040;SHT30;64736;50.462;4.850;2023-07-29T03:29:13;17.08;96.99
76040;SHT30;64736;50.462;4.850;2023-07-29T03:31:39;17.07;96.85
76040;SHT30;64736;50.462;4.850;2023-07-29T03:34:04;16.99;96.55
76040;SHT30;64736;50.462;4.850;2023-07-29T03:36:30;16.97;96.98
76040;SHT30;64736;50.462;4.850;2023-07-29T03:38:56;16.80;96.88
76040;SHT30;64736;50.462;4.850;2023-07-29T03:41:22;16.76;97.08
76040;SHT30;64736;50.462;4.850;2023-07-29T03:43:48;16.76;97.74
76040;SHT30;64736;50.462;4.850;2023-07-29T03:46:14;16.70;97.77
76040;SHT30;64736;50.462;4.850;2023-07-29T03:48:43;16.70;98.13
76040;SHT30;64736;50.462;4.850;2023-07-29T03:51:09;16.88;98.16
76040;SHT30;64736;50.462;4.850;2023-07-29T03:53:35;17.03;97.69
76040;SHT30;64736;50.462;4.850;2023-07-29T03:56:01;17.03;96.78
76040;SHT30;64736;50.462;4.850;2023-07-29T03:58:26;16.94;97.12
76040;SHT30;64736;50.462;4.850;2023-07-29T04:00:53;16.94;97.21
76040;SHT30;64736;50.462;4.850;2023-07-29T04:03:19;16.95;97.10
76040;SHT30;64736;50.462;4.850;2023-07-29T04:05:45;16.99;97.03
76040;SHT30;64736;50.462;4.850;2023-07-29T04:08:11;16.99;97.10
76040;SHT30;64736;50.462;4.850;2023-07-29T04:10:37;16.97;97.10
76040;SHT30;64736;50.462;4.850;2023-07-29T04:13:03;16.93;97.03
76040;SHT30;64736;50.462;4.850;2023-07-29T04:15:29;16.91;97.16
76040;SHT30;64736;50.462;4.850;2023-07-29T04:17:55;16.86;96.90
76040;SHT30;64736;50.462;4.850;2023-07-29T04:20:21;16.70;97.29
76040;SHT30;64736;50.462;4.850;2023-07-29T04:22:47;16.66;97.36
76040;SHT30;64736;50.462;4.850;2023-07-29T04:25:12;16.83;97.06
76040;SHT30;64736;50.462;4.850;2023-07-29T04:27:38;16.86;96.98
76040;SHT30;64736;50.462;4.850;2023-07-29T04:30:05;16.90;97.07
76040;SHT30;64736;50.462;4.850;2023-07-29T04:32:31;16.79;96.94
76040;SHT30;64736;50.462;4.850;2023-07-29T04:34:57;16.81;97.33
76040;SHT30;64736;50.462;4.850;2023-07-29T04:37:23;16.93;97.19
76040;SHT30;64736;50.462;4.850;2023-07-29T04:39:49;17.00;96.89
76040;SHT30;64736;50.462;4.850;2023-07-29T04:42:15;17.03;96.73
76040;SHT30;64736;50.462;4.850;2023-07-29T04:44:41;17.02;96.65
76040;SHT30;64736;50.462;4.850;2023-07-29T04:47:10;16.95;96.45
76040;SHT30;64736;50.462;4.850;2023-07-29T04:49:36;16.99;95.96
76040;SHT30;64736;50.462;4.850;2023-07-29T04:52:01;16.97;95.52
76040;SHT30;64736;50.462;4.850;2023-07-29T04:54:27;16.95;96.20
76040;SHT30;64736;50.462;4.850;2023-07-29T04:56:53;17.02;96.25
76040;SHT30;64736;50.462;4.850;2023-07-29T04:59:19;17.06;95.84
76040;SHT30;64736;50.462;4.850;2023-07-29T05:01:45;17.02;96.08
76040;SHT30;64736;50.462;4.850;2023-07-29T05:04:11;17.10;95.52
76040;SHT30;64736;50.462;4.850;2023-07-29T05:06:36;17.06;95.40
76040;SHT30;64736;50.462;4.850;2023-07-29T05:09:15;17.04;94.81
76040;SHT30;64736;50.462;4.850;2023-07-29T05:11:42;17.11;95.18
76040;SHT30;64736;50.462;4.850;2023-07-29T05:14:16;17.14;94.70
76040;SHT30;64736;50.462;4.850;2023-07-29T05:16:42;17.08;95.13
76040;SHT30;64736;50.462;4.850;2023-07-29T05:19:08;17.15;95.47
76040;SHT30;64736;50.462;4.850;2023-07-29T05:21:34;17.22;95.50
76040;SHT30;64736;50.462;4.850;2023-07-29T05:23:59;17.22;95.57
76040;SHT30;64736;50.462;4.850;2023-07-29T05:26:25;17.18;95.02
76040;SHT30;64736;50.462;4.850;2023-07-29T05:28:51;16.99;95.21
76040;SHT30;64736;50.462;4.850;2023-07-29T05:31:17;17.04;95.85
76040;SHT30;64736;50.462;4.850;2023-07-29T05:33:43;17.10;94.95
76040;SHT30;64736;50.462;4.850;2023-07-29T05:36:09;16.87;95.05
76040;SHT30;64736;50.462;4.850;2023-07-29T05:38:35;17.20;94.98
76040;SHT30;64736;50.462;4.850;2023-07-29T05:41:00;17.38;93.64
76040;SHT30;64736;50.462;4.850;2023-07-29T05:43:26;17.45;94.40
76040;SHT30;64736;50.462;4.850;2023-07-29T05:45:52;17.53;94.93
76040;SHT30;64736;50.462;4.850;2023-07-29T05:48:19;17.56;94.98
76040;SHT30;64736;50.462;4.850;2023-07-29T05:50:45;17.59;93.63
76040;SHT30;64736;50.462;4.850;2023-07-29T05:53:11;17.53;94.40
76040;SHT30;64736;50.462;4.850;2023-07-29T05:55:37;17.58;92.97
76040;SHT30;64736;50.462;4.850;2023-07-29T05:58:02;17.65;92.13
76040;SHT30;64736;50.462;4.850;2023-07-29T06:00:28;17.63;91.96
76040;SHT30;64736;50.462;4.850;2023-07-29T06:02:54;17.42;92.36
76040;SHT30;64736;50.462;4.850;2023-07-29T06:05:20;17.62;93.11
76040;SHT30;64736;50.462;4.850;2023-07-29T06:07:45;17.69;92.35
76040;SHT30;64736;50.462;4.850;2023-07-29T06:10:15;17.73;91.91
76040;SHT30;64736;50.462;4.850;2023-07-29T06:12:45;17.78;91.55
76040;SHT30;64736;50.462;4.850;2023-07-29T06:15:11;17.82;91.54
76040;SHT30;64736;50.462;4.850;2023-07-29T06:17:38;17.87;91.42
76040;SHT30;64736;50.462;4.850;2023-07-29T06:20:04;17.93;91.82
76040;SHT30;64736;50.462;4.850;2023-07-29T06:22:31;17.99;91.28
76040;SHT30;64736;50.462;4.850;2023-07-29T06:24:57;18.10;90.76
76040;SHT30;64736;50.462;4.850;2023-07-29T06:27:23;18.13;90.21
76040;SHT30;64736;50.462;4.850;2023-07-29T06:29:50;18.26;89.84
76040;SHT30;64736;50.462;4.850;2023-07-29T06:32:16;18.47;90.00
76040;SHT30;64736;50.462;4.850;2023-07-29T06:34:42;18.61;90.57
76040;SHT30;64736;50.462;4.850;2023-07-29T06:37:07;18.66;90.71
76040;SHT30;64736;50.462;4.850;2023-07-29T06:39:33;18.38;88.89
76040;SHT30;64736;50.462;4.850;2023-07-29T06:41:59;18.37;89.81
76040;SHT30;64736;50.462;4.850;2023-07-29T06:44:25;18.61;90.18
76040;SHT30;64736;50.462;4.850;2023-07-29T06:46:50;18.68;87.32
76040;SHT30;64736;50.462;4.850;2023-07-29T06:49:16;18.69;86.93
76040;SHT30;64736;50.462;4.850;2023-07-29T06:51:42;18.96;87.25
76040;SHT30;64736;50.462;4.850;2023-07-29T06:54:08;19.00;85.88
76040;SHT30;64736;50.462;4.850;2023-07-29T06:56:33;19.02;85.95
76040;SHT30;64736;50.462;4.850;2023-07-29T06:58:59;19.14;85.49
76040;SHT30;64736;50.462;4.850;2023-07-29T07:01:25;19.13;85.59
76040;SHT30;64736;50.462;4.850;2023-07-29T07:03:50;19.10;86.57
76040;SHT30;64736;50.462;4.850;2023-07-29T07:06:22;18.98;85.92
76040;SHT30;64736;50.462;4.850;2023-07-29T07:08:50;19.16;85.21
76040;SHT30;64736;50.462;4.850;2023-07-29T07:11:16;19.12;84.18
76040;SHT30;64736;50.462;4.850;2023-07-29T07:13:42;18.99;85.85
76040;SHT30;64736;50.462;4.850;2023-07-29T07:16:07;19.03;87.03
76040;SHT30;64736;50.462;4.850;2023-07-29T07:18:33;18.95;86.54
76040;SHT30;64736;50.462;4.850;2023-07-29T07:20:59;18.96;89.58
76040;SHT30;64736;50.462;4.850;2023-07-29T07:23:24;19.16;88.03
76040;SHT30;64736;50.462;4.850;2023-07-29T07:25:50;19.07;86.92
76040;SHT30;64736;50.462;4.850;2023-07-29T07:28:16;19.55;85.03
76040;SHT30;64736;50.462;4.850;2023-07-29T07:30:42;19.57;85.66
76040;SHT30;64736;50.462;4.850;2023-07-29T07:33:08;19.74;87.26
76040;SHT30;64736;50.462;4.850;2023-07-29T07:35:33;19.27;87.31
76040;SHT30;64736;50.462;4.850;2023-07-29T07:37:59;19.09;88.10
76040;SHT30;64736;50.462;4.850;2023-07-29T07:40:27;19.14;88.05
76040;SHT30;64736;50.462;4.850;2023-07-29T07:42:53;19.43;86.67
76040;SHT30;64736;50.462;4.850;2023-07-29T07:45:19;19.83;84.15
76040;SHT30;64736;50.462;4.850;2023-07-29T07:47:45;19.53;84.19
76040;SHT30;64736;50.462;4.850;2023-07-29T07:50:11;19.67;84.32
76040;SHT30;64736;50.462;4.850;2023-07-29T07:52:37;19.71;83.89
76040;SHT30;64736;50.462;4.850;2023-07-29T07:55:02;19.88;85.16
76040;SHT30;64736;50.462;4.850;2023-07-29T07:57:28;19.92;84.59
76040;SHT30;64736;50.462;4.850;2023-07-29T07:59:54;19.79;82.94
76040;SHT30;64736;50.462;4.850;2023-07-29T08:02:19;19.65;83.02
76040;SHT30;64736;50.462;4.850;2023-07-29T08:04:45;19.64;83.50
76040;SHT30;64736;50.462;4.850;2023-07-29T08:07:11;19.67;83.04
76040;SHT30;64736;50.462;4.850;2023-07-29T08:09:37;19.71;83.02
76040;SHT30;64736;50.462;4.850;2023-07-29T08:12:02;19.93;83.46
76040;SHT30;64736;50.462;4.850;2023-07-29T08:14:28;19.99;83.37
76040;SHT30;64736;50.462;4.850;2023-07-29T08:16:54;19.93;81.99
76040;SHT30;64736;50.462;4.850;2023-07-29T08:19:19;19.95;83.01
76040;SHT30;64736;50.462;4.850;2023-07-29T08:21:45;20.13;82.21
76040;SHT30;64736;50.462;4.850;2023-07-29T08:24:10;20.29;80.85
76040;SHT30;64736;50.462;4.850;2023-07-29T08:26:36;20.46;81.14
76040;SHT30;64736;50.462;4.850;2023-07-29T08:29:01;20.43;80.25
76040;SHT30;64736;50.462;4.850;2023-07-29T08:31:27;20.58;80.55
76040;SHT30;64736;50.462;4.850;2023-07-29T08:33:53;20.83;81.40
76040;SHT30;64736;50.462;4.850;2023-07-29T08:36:19;21.01;79.56
76040;SHT30;64736;50.462;4.850;2023-07-29T08:38:44;21.11;79.69
76040;SHT30;64736;50.462;4.850;2023-07-29T15:48:28;22.87;71.94
76040;SHT30;64736;50.462;4.850;2023-07-29T15:50:54;22.93;69.98
76040;SHT30;64736;50.462;4.850;2023-07-29T15:53:20;23.11;69.60
76040;SHT30;64736;50.462;4.850;2023-07-29T19:02:13;21.33;66.42
76040;SHT30;64736;50.462;4.850;2023-07-29T19:04:39;21.35;66.57
76040;SHT30;64736;50.462;4.850;2023-07-29T19:07:07;21.53;66.46
76040;SHT30;64736;50.462;4.850;2023-07-29T19:09:32;21.66;66.30
76040;SHT30;64736;50.462;4.850;2023-07-29T19:11:58;21.76;66.18
76040;SHT30;64736;50.462;4.850;2023-07-29T19:14:24;21.67;66.79
76040;SHT30;64736;50.462;4.850;2023-07-29T19:16:50;21.59;67.31
76040;SHT30;64736;50.462;4.850;2023-07-29T19:19:15;21.39;68.05
76040;SHT30;64736;50.462;4.850;2023-07-29T19:21:41;21.22;69.02
76040;SHT30;64736;50.462;4.850;2023-07-29T19:24:07;21.09;69.77
76040;SHT30;64736;50.462;4.850;2023-07-29T19:26:32;20.98;70.07
76040;SHT30;64736;50.462;4.850;2023-07-29T19:28:58;20.87;70.55
76040;SHT30;64736;50.462;4.850;2023-07-29T19:31:24;20.85;71.00
76040;SHT30;64736;50.462;4.850;2023-07-29T19:33:50;20.76;70.83
76040;SHT30;64736;50.462;4.850;2023-07-29T19:36:17;20.71;71.05
76040;SHT30;64736;50.462;4.850;2023-07-29T19:38:43;20.68;71.02
76040;SHT30;64736;50.462;4.850;2023-07-29T19:41:08;20.63;71.47
76040;SHT30;64736;50.462;4.850;2023-07-29T19:43:34;20.58;71.42
76040;SHT30;64736;50.462;4.850;2023-07-29T19:46:00;20.41;71.13
76040;SHT30;64736;50.462;4.850;2023-07-29T19:48:28;20.40;71.22
76040;SHT30;64736;50.462;4.850;2023-07-29T19:50:54;20.40;71.41
76040;SHT30;64736;50.462;4.850;2023-07-29T19:53:19;20.33;71.53
76040;SHT30;64736;50.462;4.850;2023-07-29T19:55:45;20.32;71.54
76040;SHT30;64736;50.462;4.850;2023-07-29T19:58:18;20.25;72.14
76040;SHT30;64736;50.462;4.850;2023-07-29T20:00:50;20.19;72.38
76040;SHT30;64736;50.462;4.850;2023-07-29T20:03:16;20.04;72.90
76040;SHT30;64736;50.462;4.850;2023-07-29T20:05:42;20.08;72.51
76040;SHT30;64736;50.462;4.850;2023-07-29T20:08:08;20.04;72.34
76040;SHT30;64736;50.462;4.850;2023-07-29T20:10:34;19.99;72.80
76040;SHT30;64736;50.462;4.850;2023-07-29T20:13:00;19.95;72.77
76040;SHT30;64736;50.462;4.850;2023-07-29T20:15:26;19.92;72.48
76040;SHT30;64736;50.462;4.850;2023-07-29T20:17:52;19.88;72.76
76040;SHT30;64736;50.462;4.850;2023-07-29T20:20:18;19.79;72.59
76040;SHT30;64736;50.462;4.850;2023-07-29T20:22:44;19.74;72.46
76040;SHT30;64736;50.462;4.850;2023-07-29T20:25:09;19.64;71.80
76040;SHT30;64736;50.462;4.850;2023-07-29T20:27:35;19.67;71.94
76040;SHT30;64736;50.462;4.850;2023-07-29T20:30:00;19.60;71.74
76040;SHT30;64736;50.462;4.850;2023-07-29T20:32:26;19.51;72.18
76040;SHT30;64736;50.462;4.850;2023-07-29T20:34:52;19.46;71.24
76040;SHT30;64736;50.462;4.850;2023-07-29T20:37:18;19.44;71.60
76040;SHT30;64736;50.462;4.850;2023-07-29T20:39:44;19.38;71.11
76040;SHT30;64736;50.462;4.850;2023-07-29T20:42:09;19.33;70.75
76040;SHT30;64736;50.462;4.850;2023-07-29T20:44:35;19.30;71.06
76040;SHT30;64736;50.462;4.850;2023-07-29T20:47:01;19.26;71.35
76040;SHT30;64736;50.462;4.850;2023-07-29T20:49:27;19.26;70.72
76040;SHT30;64736;50.462;4.850;2023-07-29T20:51:53;19.17;70.75
76040;SHT30;64736;50.462;4.850;2023-07-29T20:54:20;19.12;70.58
76040;SHT30;64736;50.462;4.850;2023-07-29T20:56:45;19.09;70.72
76040;SHT30;64736;50.462;4.850;2023-07-29T20:59:11;19.12;70.43
76040;SHT30;64736;50.462;4.850;2023-07-29T21:01:37;19.06;70.74
76040;SHT30;64736;50.462;4.850;2023-07-29T21:04:03;19.03;71.06
76040;SHT30;64736;50.462;4.850;2023-07-29T21:06:29;18.99;70.86
76040;SHT30;64736;50.462;4.850;2023-07-29T21:08:54;18.92;71.46
76040;SHT30;64736;50.462;4.850;2023-07-29T21:11:20;18.88;71.44
76040;SHT30;64736;50.462;4.850;2023-07-29T21:13:46;18.86;72.07
76040;SHT30;64736;50.462;4.850;2023-07-29T21:16:15;18.79;72.55
76040;SHT30;64736;50.462;4.850;2023-07-29T21:18:43;18.76;72.99
76040;SHT30;64736;50.462;4.850;2023-07-29T21:21:09;18.73;73.35
76040;SHT30;64736;50.462;4.850;2023-07-29T21:23:35;18.69;73.91
76040;SHT30;64736;50.462;4.850;2023-07-29T21:26:01;18.59;74.45
76040;SHT30;64736;50.462;4.850;2023-07-29T21:28:26;18.64;74.44
76040;SHT30;64736;50.462;4.850;2023-07-29T21:30:52;18.58;75.01
76040;SHT30;64736;50.462;4.850;2023-07-29T21:33:17;18.47;75.43
76040;SHT30;64736;50.462;4.850;2023-07-29T21:35:43;18.31;76.57
76040;SHT30;64736;50.462;4.850;2023-07-29T21:38:09;18.40;75.91
76040;SHT30;64736;50.462;4.850;2023-07-29T21:40:34;18.37;75.81
76040;SHT30;64736;50.462;4.850;2023-07-29T21:43:00;18.40;75.38
76040;SHT30;64736;50.462;4.850;2023-07-29T21:45:26;18.36;74.87
76040;SHT30;64736;50.462;4.850;2023-07-29T21:47:51;18.27;75.24
76040;SHT30;64736;50.462;4.850;2023-07-29T21:50:17;18.31;74.55
76040;SHT30;64736;50.462;4.850;2023-07-29T21:52:43;18.27;74.68
76040;SHT30;64736;50.462;4.850;2023-07-29T21:55:09;18.24;74.20
76040;SHT30;64736;50.462;4.850;2023-07-29T21:57:34;18.21;74.38
76040;SHT30;64736;50.462;4.850;2023-07-29T22:00:00;18.20;74.25
76040;SHT30;64736;50.462;4.850;2023-07-29T22:02:26;18.20;74.35
76040;SHT30;64736;50.462;4.850;2023-07-29T22:04:51;18.20;73.63
76040;SHT30;64736;50.462;4.850;2023-07-29T22:07:17;18.17;72.95
76040;SHT30;64736;50.462;4.850;2023-07-29T22:09:43;18.13;73.38
76040;SHT30;64736;50.462;4.850;2023-07-29T22:12:08;18.14;73.39
76040;SHT30;64736;50.462;4.850;2023-07-29T22:14:34;18.06;73.21
76040;SHT30;64736;50.462;4.850;2023-07-29T22:17:00;18.13;72.77
76040;SHT30;64736;50.462;4.850;2023-07-29T22:19:25;18.10;72.77
76040;SHT30;64736;50.462;4.850;2023-07-29T22:21:51;18.07;72.72
76040;SHT30;64736;50.462;4.850;2023-07-29T22:24:17;18.00;72.99
76040;SHT30;64736;50.462;4.850;2023-07-29T22:26:43;17.93;73.08
76040;SHT30;64736;50.462;4.850;2023-07-29T22:29:10;18.03;72.93
76040;SHT30;64736;50.462;4.850;2023-07-29T22:31:36;18.03;72.99
76040;SHT30;64736;50.462;4.850;2023-07-29T22:34:02;17.94;73.28
76040;SHT30;64736;50.462;4.850;2023-07-29T22:36:29;17.96;73.01
76040;SHT30;64736;50.462;4.850;2023-07-29T22:38:54;17.90;73.26
76040;SHT30;64736;50.462;4.850;2023-07-29T22:41:20;17.87;73.52
76040;SHT30;64736;50.462;4.850;2023-07-29T22:43:46;17.89;73.25
76040;SHT30;64736;50.462;4.850;2023-07-29T22:46:12;17.91;73.27
76040;SHT30;64736;50.462;4.850;2023-07-29T22:48:38;17.89;73.38
76040;SHT30;64736;50.462;4.850;2023-07-29T22:51:04;17.82;73.93
76040;SHT30;64736;50.462;4.850;2023-07-29T22:53:30;17.82;73.86
76040;SHT30;64736;50.462;4.850;2023-07-29T22:55:55;17.80;73.31
76040;SHT30;64736;50.462;4.850;2023-07-29T22:58:21;17.82;73.18
76040;SHT30;64736;50.462;4.850;2023-07-29T23:00:52;17.76;73.85
76040;SHT30;64736;50.462;4.850;2023-07-29T23:03:18;17.76;73.28
76040;SHT30;64736;50.462;4.850;2023-07-29T23:05:44;17.73;73.59
76040;SHT30;64736;50.462;4.850;2023-07-29T23:08:11;17.69;73.78
76040;SHT30;64736;50.462;4.850;2023-07-29T23:10:36;17.75;73.43
76040;SHT30;64736;50.462;4.850;2023-07-29T23:13:03;17.72;73.73
76040;SHT30;64736;50.462;4.850;2023-07-29T23:15:40;17.66;74.48
76040;SHT30;64736;50.462;4.850;2023-07-29T23:18:07;17.59;74.58
76040;SHT30;64736;50.462;4.850;2023-07-29T23:20:34;17.62;74.17
76040;SHT30;64736;50.462;4.850;2023-07-29T23:23:01;17.62;74.62
76040;SHT30;64736;50.462;4.850;2023-07-29T23:25:28;17.52;74.84
76040;SHT30;64736;50.462;4.850;2023-07-29T23:27:54;17.56;74.88
76040;SHT30;64736;50.462;4.850;2023-07-29T23:30:20;17.46;75.33
76040;SHT30;64736;50.462;4.850;2023-07-29T23:32:46;17.52;75.29
76040;SHT30;64736;50.462;4.850;2023-07-29T23:35:12;17.51;75.80
76040;SHT30;64736;50.462;4.850;2023-07-29T23:37:38;17.48;75.52
76040;SHT30;64736;50.462;4.850;2023-07-29T23:40:04;17.41;76.14
76040;SHT30;64736;50.462;4.850;2023-07-29T23:42:30;17.41;75.91
76040;SHT30;64736;50.462;4.850;2023-07-29T23:44:56;17.28;76.61
76040;SHT30;64736;50.462;4.850;2023-07-29T23:47:22;17.24;76.90
76040;SHT30;64736;50.462;4.850;2023-07-29T23:49:47;17.32;76.65
76040;SHT30;64736;50.462;4.850;2023-07-29T23:52:13;17.30;76.61
76040;SHT30;64736;50.462;4.850;2023-07-29T23:54:39;17.24;77.03
76040;SHT30;64736;50.462;4.850;2023-07-29T23:57:05;17.20;77.04
76040;SHT30;64736;50.462;4.850;2023-07-29T23:59:31;17.17;77.42
